Time;durP1;ratioP1;P1;durP2;ratioP2;P2;SDS_P1;SDS_P2;PMS_P1;PMS_P2;Temp;Humidity;BMP_temperature;BMP_pressure;BME280_temperature;BME280_humidity;BME280_pressure;Samples;Min_cycle;Max_cycle;Signal;HPM_P1;HPM_P2
2024/03/20 00:00:02;;;;;;;17.48;9.45;;;;;;;8.59;100.00;100724.16;4989241;28;20045;-77
2024/03/20 00:02:37;;;;;;;16.52;9.85;;;;;;;8.69;100.00;100764.03;4989706;28;20074;-76
2024/03/20 00:05:03;;;;;;;16.90;9.43;;;;;;;8.66;100.00;100759.81;4990406;28;20069;-76
2024/03/20 00:07:29;;;;;;;17.38;10.32;;;;;;;8.68;100.00;100773.00;4989085;28;20030;-78
2024/03/20 00:09:55;;;;;;;17.70;10.70;;;;;;;8.70;100.00;100771.84;4980821;28;20040;-76
2024/03/20 00:12:21;;;;;;;19.95;10.40;;;;;;;8.61;100.00;100756.78;4989063;28;20046;-76
2024/03/20 00:14:48;;;;;;;20.25;11.98;;;;;;;8.47;100.00;100751.97;4989098;28;20374;-77
2024/03/20 00:17:14;;;;;;;22.10;10.88;;;;;;;8.61;100.00;100797.53;4980812;28;20140;-77
2024/03/20 00:19:39;;;;;;;18.63;10.25;;;;;;;8.54;100.00;100755.72;4988526;28;20038;-77
2024/03/20 00:22:05;;;;;;;16.52;9.63;;;;;;;8.57;100.00;100797.97;4981203;28;20252;-77
2024/03/20 00:24:30;;;;;;;22.27;10.60;;;;;;;8.64;100.00;100780.47;4988072;28;20065;-77
2024/03/20 00:26:56;;;;;;;22.20;10.75;;;;;;;8.63;100.00;100787.59;4989794;28;20042;-77
2024/03/20 00:29:22;;;;;;;16.70;10.97;;;;;;;8.65;100.00;100766.97;4988167;28;20058;-78
2024/03/20 00:31:47;;;;;;;16.45;10.57;;;;;;;8.72;100.00;100787.69;4982516;28;20312;-78
2024/03/20 00:34:13;;;;;;;21.47;11.10;;;;;;;8.64;100.00;100769.81;4972139;28;20046;-77
2024/03/20 00:36:39;;;;;;;19.40;10.33;;;;;;;8.47;100.00;100768.75;4988420;28;20500;-77
2024/03/20 00:39:08;;;;;;;18.55;11.38;;;;;;;8.60;100.00;100842.94;5003964;28;20297;-77
2024/03/20 00:41:33;;;;;;;18.10;10.57;;;;;;;8.72;100.00;100843.59;4987709;28;20027;-78
2024/03/20 00:43:58;;;;;;;18.10;11.07;;;;;;;8.65;100.00;100856.66;4987994;28;20409;-78
2024/03/20 00:46:24;;;;;;;21.87;11.57;;;;;;;8.60;100.00;100840.28;4988052;28;20401;-78
2024/03/20 00:48:49;;;;;;;19.20;10.47;;;;;;;8.61;100.00;100825.97;4988180;28;20077;-75
2024/03/20 00:51:14;;;;;;;19.13;10.27;;;;;;;8.77;100.00;100854.63;4971873;28;20431;-77
2024/03/20 00:53:40;;;;;;;17.63;10.50;;;;;;;8.84;100.00;100813.94;4988289;28;20046;-77
2024/03/20 00:56:06;;;;;;;18.20;9.93;;;;;;;8.83;100.00;100790.16;4989858;28;20050;-77
2024/03/20 00:58:32;;;;;;;23.90;11.10;;;;;;;8.74;100.00;100770.59;4988575;28;20339;-78
2024/03/20 01:00:57;;;;;;;22.20;10.90;;;;;;;8.73;100.00;100779.53;4989754;28;20034;-77
2024/03/20 01:03:23;;;;;;;21.57;10.50;;;;;;;8.69;100.00;100795.97;4988563;28;20042;-77
2024/03/20 01:05:48;;;;;;;19.08;10.73;;;;;;;8.67;100.00;100817.41;4988577;28;20289;-76
2024/03/20 01:08:15;;;;;;;20.88;11.02;;;;;;;8.73;100.00;100811.47;4988568;28;20041;-76
2024/03/20 01:10:41;;;;;;;17.30;10.23;;;;;;;8.77;100.00;100822.69;4988374;28;20058;-77
2024/03/20 01:13:06;;;;;;;23.40;10.82;;;;;;;8.72;100.00;100815.13;4988990;28;20612;-78
2024/03/20 01:15:33;;;;;;;19.27;11.63;;;;;;;8.73;100.00;100808.81;4989903;28;20030;-76
2024/03/20 01:17:58;;;;;;;20.65;12.07;;;;;;;8.77;100.00;100836.81;4988630;28;20112;-76
2024/03/20 01:20:24;;;;;;;19.47;10.93;;;;;;;8.61;100.00;100816.16;4988079;28;20132;-77
2024/03/20 01:22:49;;;;;;;18.77;10.97;;;;;;;8.55;100.00;100848.72;4988542;28;20035;-76
2024/03/20 01:25:14;;;;;;;22.13;11.70;;;;;;;8.62;100.00;100881.72;4987918;28;20092;-78
2024/03/20 01:27:40;;;;;;;24.17;11.48;;;;;;;8.56;100.00;100921.38;4988460;28;20053;-77
2024/03/20 01:30:06;;;;;;;20.03;10.53;;;;;;;8.54;100.00;100918.88;4989303;28;20149;-77
2024/03/20 01:32:31;;;;;;;20.67;11.90;;;;;;;8.58;100.00;100898.13;4988543;28;20645;-76
2024/03/20 01:34:57;;;;;;;22.00;11.27;;;;;;;8.60;100.00;100907.66;4987839;28;20034;-76
2024/03/20 01:37:22;;;;;;;17.90;11.10;;;;;;;8.57;100.00;100966.50;4987892;28;20042;-76
2024/03/20 01:39:48;;;;;;;19.07;11.03;;;;;;;8.50;100.00;100969.84;4987516;28;20444;-77
2024/03/20 01:42:13;;;;;;;17.58;10.73;;;;;;;8.54;100.00;100987.22;4987856;28;20030;-76
2024/03/20 01:44:38;;;;;;;21.37;11.67;;;;;;;8.55;100.00;101042.97;4988935;28;20034;-76
2024/03/20 01:47:04;;;;;;;23.23;10.87;;;;;;;8.51;100.00;101040.75;4980994;28;20065;-77
2024/03/20 01:49:30;;;;;;;23.58;12.05;;;;;;;8.54;100.00;101049.25;4978594;28;20103;-76
2024/03/20 01:51:58;;;;;;;20.35;11.05;;;;;;;8.40;100.00;101012.44;4995938;28;20521;-78
2024/03/20 01:54:23;;;;;;;22.25;11.13;;;;;;;8.40;100.00;101010.63;4971474;28;20018;-77
2024/03/20 01:56:49;;;;;;;20.08;11.95;;;;;;;8.32;100.00;101013.13;4997313;28;20037;-78
2024/03/20 01:59:14;;;;;;;21.40;12.37;;;;;;;8.47;100.00;101146.59;4987696;28;20038;-77
2024/03/20 02:01:40;;;;;;;22.45;12.65;;;;;;;8.32;100.00;101212.66;4987345;28;20034;-77
2024/03/20 02:04:06;;;;;;;24.73;13.27;;;;;;;8.37;100.00;101355.94;4972367;28;20051;-78
2024/03/20 02:06:32;;;;;;;21.33;12.65;;;;;;;8.12;100.00;101421.84;5003052;28;20042;-77
2024/03/20 02:08:59;;;;;;;24.70;13.30;;;;;;;8.14;100.00;101518.31;4987372;28;20180;-76
2024/03/20 02:11:26;;;;;;;23.63;12.98;;;;;;;8.22;100.00;101634.75;4971361;28;20050;-76
2024/03/20 02:13:53;;;;;;;21.00;13.05;;;;;;;8.18;100.00;101663.41;4987531;28;20034;-76
2024/03/20 02:16:20;;;;;;;23.88;13.05;;;;;;;8.08;100.00;101624.38;4979211;28;20026;-77
2024/03/20 02:18:47;;;;;;;27.60;13.45;;;;;;;8.12;100.00;101639.97;4987274;28;20096;-77
2024/03/20 02:21:13;;;;;;;24.77;13.40;;;;;;;8.00;100.00;101612.53;4986783;28;20018;-76
2024/03/20 02:23:39;;;;;;;;;;;;;;;7.94;100.00;101602.44;4984204;28;20027;-77
2024/03/20 02:26:05;;;;;;;25.40;13.00;;;;;;;7.90;100.00;101585.03;4992118;28;20266;-76
2024/03/20 02:28:34;;;;;;;25.38;13.68;;;;;;;7.88;100.00;101586.97;4985491;28;20486;-77
2024/03/20 02:31:04;;;;;;;28.25;13.95;;;;;;;7.89;100.00;101556.75;4986902;28;20061;-76
2024/03/20 02:33:30;;;;;;;22.48;13.45;;;;;;;7.79;100.00;101486.69;4987838;28;20038;-76
2024/03/20 02:35:56;;;;;;;26.13;14.20;;;;;;;7.81;100.00;101468.78;4987560;28;20053;-78
2024/03/20 02:38:23;;;;;;;20.80;12.63;;;;;;;7.87;100.00;101452.34;4986970;28;20501;-77
2024/03/20 02:40:49;;;;;;;23.38;13.75;;;;;;;7.83;100.00;101437.63;4970645;28;20092;-77
2024/03/20 02:43:15;;;;;;;22.00;13.52;;;;;;;7.87;100.00;101454.16;4994113;28;20018;-77
2024/03/20 02:45:40;;;;;;;28.30;14.98;;;;;;;7.83;100.00;101445.59;4986555;28;20035;-77
2024/03/20 02:48:06;;;;;;;23.37;13.83;;;;;;;7.57;100.00;101419.34;4986683;28;20072;-77
2024/03/20 02:50:31;;;;;;;25.30;14.98;;;;;;;7.69;100.00;101459.19;4986237;28;20088;-77
2024/03/20 02:53:03;;;;;;;28.47;14.20;;;;;;;7.75;100.00;101504.72;4986630;28;20227;-76
2024/03/20 02:55:28;;;;;;;27.02;15.35;;;;;;;7.79;100.00;101521.25;4986202;28;20046;-76
2024/03/20 02:57:54;;;;;;;26.93;14.93;;;;;;;7.79;100.00;101511.44;4986293;28;20030;-76
2024/03/20 03:00:19;;;;;;;25.60;13.93;;;;;;;7.74;100.00;101470.28;4986249;28;20996;-76
2024/03/20 03:02:45;;;;;;;27.42;15.63;;;;;;;7.79;100.00;101444.16;4986846;28;20035;-76
2024/03/20 03:05:11;;;;;;;28.05;13.60;;;;;;;7.82;100.00;101420.00;4983111;28;20114;-78
2024/03/20 03:07:36;;;;;;;25.27;14.15;;;;;;;7.72;100.00;101360.56;4986086;28;20054;-77
2024/03/20 03:10:05;;;;;;;26.27;14.95;;;;;;;7.83;100.00;101372.00;4985931;28;20081;-77
2024/03/20 03:12:30;;;;;;;27.13;15.38;;;;;;;7.86;100.00;101360.25;4986439;28;20014;-78
2024/03/20 03:14:56;;;;;;;;;;;;;;;7.83;100.00;101304.69;4986663;28;20271;-77
2024/03/20 03:17:22;;;;;;;26.48;15.00;;;;;;;7.90;100.00;101319.16;4970193;28;20328;-76
2024/03/20 03:19:47;;;;;;;25.03;15.13;;;;;;;7.88;100.00;101355.66;4986141;28;20044;-77
2024/03/20 03:22:12;;;;;;;26.77;14.07;;;;;;;7.89;100.00;101351.16;4999347;28;20045;-78
2024/03/20 03:24:38;;;;;;;25.90;14.43;;;;;;;7.78;100.00;101285.66;4985976;28;20032;-76
2024/03/20 03:27:03;;;;;;;23.27;13.37;;;;;;;7.82;100.00;101271.13;4986389;28;20038;-77
2024/03/20 03:29:29;;;;;;;25.00;14.93;;;;;;;7.89;100.00;101285.56;4985667;28;20486;-77
2024/03/20 03:31:54;;;;;;;28.35;15.43;;;;;;;7.87;100.00;101273.38;4986547;28;20031;-78
2024/03/20 03:34:20;;;;;;;29.53;15.73;;;;;;;7.94;100.00;101275.38;4986328;28;20045;-76
2024/03/20 03:36:45;;;;;;;35.60;16.15;;;;;;;7.96;100.00;101275.22;4986299;28;20041;-77
2024/03/20 03:39:11;;;;;;;25.13;14.83;;;;;;;7.91;100.00;101251.69;4985970;28;20080;-77
2024/03/20 03:41:36;;;;;;;25.02;13.57;;;;;;;7.85;100.00;101236.28;4986218;28;20074;-77
2024/03/20 03:44:03;;;;;;;26.17;16.37;;;;;;;7.83;100.00;101248.88;4985346;28;20057;-77
2024/03/20 03:46:29;;;;;;;34.33;17.17;;;;;;;7.83;100.00;101248.88;4983348;28;20045;-77
2024/03/20 03:48:55;;;;;;;30.98;15.77;;;;;;;7.91;100.00;101272.97;4986231;28;20065;-77
2024/03/20 03:51:20;;;;;;;27.90;16.40;;;;;;;7.86;100.00;101259.22;4983455;28;20034;-77
2024/03/20 03:53:45;;;;;;;29.13;15.83;;;;;;;7.94;100.00;101285.19;4986111;28;20045;-78
2024/03/20 03:56:11;;;;;;;30.73;15.73;;;;;;;7.96;100.00;101318.63;4982692;28;20461;-79
2024/03/20 03:58:36;;;;;;;28.43;15.77;;;;;;;7.88;100.00;101301.66;4985452;28;20026;-76
2024/03/20 04:01:02;;;;;;;28.07;16.07;;;;;;;7.89;100.00;101309.50;4985644;28;20042;-77
2024/03/20 04:03:27;;;;;;;28.48;16.10;;;;;;;7.94;100.00;101355.13;4985788;28;20359;-77
2024/03/20 04:06:00;;;;;;;28.97;16.47;;;;;;;7.90;100.00;101393.59;4985825;28;20037;-76
2024/03/20 04:08:26;;;;;;;33.20;17.67;;;;;;;7.87;100.00;101433.75;4985418;28;20034;-77
2024/03/20 04:10:51;;;;;;;40.15;17.95;;;;;;;7.84;100.00;101418.03;4986580;28;20034;-77
2024/03/20 04:13:17;;;;;;;28.08;16.63;;;;;;;7.78;100.00;101426.53;4987106;28;20049;-78
2024/03/20 04:15:44;;;;;;;30.67;17.87;;;;;;;7.75;100.00;101386.88;4989368;28;20029;-77
2024/03/20 04:18:09;;;;;;;31.90;17.20;;;;;;;7.79;100.00;101413.09;4989246;28;20085;-77
2024/03/20 04:20:34;;;;;;;31.10;17.23;;;;;;;7.61;100.00;101380.94;4988969;28;20042;-76
2024/03/20 04:23:02;;;;;;;31.33;18.23;;;;;;;7.69;100.00;101390.06;4989494;28;20954;-77
2024/03/20 04:25:28;;;;;;;31.02;17.02;;;;;;;7.67;100.00;101402.66;4988800;28;20034;-77
2024/03/20 04:27:55;;;;;;;34.25;17.48;;;;;;;7.65;100.00;101383.31;4983663;28;20487;-76
2024/03/20 04:30:20;;;;;;;32.70;17.70;;;;;;;7.77;100.00;101366.34;4987128;28;20022;-77
2024/03/20 04:32:46;;;;;;;31.75;16.77;;;;;;;7.69;100.00;101355.53;4989085;28;20038;-78
2024/03/20 04:35:11;;;;;;;30.73;16.35;;;;;;;7.72;100.00;101380.00;4982578;28;20090;-76
2024/03/20 04:37:37;;;;;;;29.98;17.52;;;;;;;7.66;100.00;101355.78;4987376;28;20068;-77
2024/03/20 04:40:03;;;;;;;35.15;19.63;;;;;;;7.61;100.00;101366.81;4980320;28;20037;-76
2024/03/20 04:42:29;;;;;;;;;;;;;;;7.64;100.00;101381.66;4988880;28;20026;-77
2024/03/20 04:44:54;;;;;;;34.17;17.65;;;;;;;7.56;100.00;101372.50;4975167;28;20328;-76
2024/03/20 04:47:20;;;;;;;35.00;18.90;;;;;;;7.57;100.00;101360.88;4985026;28;20129;-78
2024/03/20 04:49:45;;;;;;;34.67;19.10;;;;;;;7.59;100.00;101363.44;4981537;28;20652;-77
2024/03/20 04:52:11;;;;;;;33.83;19.63;;;;;;;7.49;100.00;101352.72;4988046;28;20085;-77
2024/03/20 04:54:36;;;;;;;37.00;20.65;;;;;;;7.40;100.00;101348.19;4987822;28;20286;-77
2024/03/20 04:57:02;;;;;;;35.67;17.57;;;;;;;7.37;100.00;101327.16;4989201;28;20393;-77
2024/03/20 04:59:28;;;;;;;36.22;18.25;;;;;;;7.36;100.00;101314.88;4971117;28;20289;-78
2024/03/20 05:01:53;;;;;;;42.17;19.67;;;;;;;7.28;100.00;101285.44;4971912;28;20472;-77
2024/03/20 05:04:19;;;;;;;30.83;18.20;;;;;;;7.30;100.00;101289.63;5000800;28;20290;-77
2024/03/20 05:06:44;;;;;;;35.87;19.90;;;;;;;7.33;100.00;101281.44;4987595;28;20077;-77
2024/03/20 05:09:10;;;;;;;39.60;21.17;;;;;;;7.44;100.00;101285.81;4987796;28;20030;-78
2024/03/20 05:11:36;;;;;;;34.10;18.88;;;;;;;7.51;100.00;101281.69;4987362;28;20185;-77
2024/03/20 05:14:02;;;;;;;37.75;20.15;;;;;;;7.56;100.00;101282.16;4987535;28;20034;-77
2024/03/20 05:16:27;;;;;;;35.72;20.20;;;;;;;7.60;100.00;101285.38;4987374;28;20037;-78
2024/03/20 05:18:53;;;;;;;30.33;18.87;;;;;;;7.60;100.00;101283.56;4988143;28;20041;-78
2024/03/20 05:21:18;;;;;;;39.33;19.92;;;;;;;7.62;100.00;101299.38;4989322;28;20692;-77
2024/03/20 05:23:44;;;;;;;33.87;17.90;;;;;;;7.59;100.00;101281.88;4988310;28;20039;-78
2024/03/20 05:26:11;;;;;;;39.38;19.42;;;;;;;7.60;100.00;101290.69;4988657;28;20038;-78
2024/03/20 05:28:36;;;;;;;37.83;19.60;;;;;;;7.58;100.00;101293.47;4989179;28;20104;-77
2024/03/20 05:31:02;;;;;;;33.95;20.38;;;;;;;7.64;100.00;101307.25;4983272;28;20039;-78
2024/03/20 05:33:28;;;;;;;35.67;18.73;;;;;;;7.64;100.00;101305.41;4987062;28;20031;-78
2024/03/20 05:35:53;;;;;;;36.80;20.58;;;;;;;7.71;100.00;101321.69;4972416;28;20034;-77
2024/03/20 05:38:19;;;;;;;36.60;20.17;;;;;;;7.71;100.00;101316.38;4994620;28;20026;-77
2024/03/20 05:40:44;;;;;;;35.60;19.70;;;;;;;7.76;100.00;101314.16;4987973;28;20045;-78
2024/03/20 05:43:10;;;;;;;36.10;20.67;;;;;;;7.77;100.00;101314.06;4989524;28;20608;-77
2024/03/20 05:45:35;;;;;;;36.40;19.42;;;;;;;7.78;100.00;101317.53;4987782;28;20538;-77
2024/03/20 05:48:01;;;;;;;31.75;19.35;;;;;;;7.84;100.00;101335.59;4981926;28;20035;-77
2024/03/20 05:50:27;;;;;;;42.25;21.38;;;;;;;7.84;100.00;101309.03;4985012;28;20030;-77
2024/03/20 05:52:55;;;;;;;35.23;20.00;;;;;;;7.89;100.00;101285.56;4988125;28;20112;-77
2024/03/20 05:55:22;;;;;;;44.58;22.05;;;;;;;7.92;100.00;101268.50;4987825;28;20753;-76
2024/03/20 05:57:50;;;;;;;32.13;19.00;;;;;;;7.95;100.00;101250.47;4987523;28;20026;-77
2024/03/20 06:00:25;;;;;;;36.90;19.23;;;;;;;7.90;100.00;101228.75;4986175;28;20401;-77
2024/03/20 06:02:54;;;;;;;37.40;20.70;;;;;;;7.91;100.00;101234.91;4988768;28;20774;-77
2024/03/20 06:05:19;;;;;;;35.38;20.40;;;;;;;7.98;100.00;101222.75;4985786;28;20026;-77
2024/03/20 06:07:45;;;;;;;42.47;21.58;;;;;;;8.02;100.00;101226.84;4987518;28;20790;-77
2024/03/20 06:10:12;;;;;;;41.28;20.95;;;;;;;8.08;100.00;101222.78;4987295;28;20041;-77
2024/03/20 06:12:38;;;;;;;40.80;20.83;;;;;;;8.09;100.00;101222.66;4987379;28;20116;-77
2024/03/20 06:15:05;;;;;;;45.47;22.02;;;;;;;8.20;100.00;101240.34;4987214;28;20022;-78
2024/03/20 06:17:32;;;;;;;41.28;21.60;;;;;;;8.07;100.00;101224.63;4986888;28;20505;-77
2024/03/20 06:19:58;;;;;;;42.47;22.55;;;;;;;8.02;100.00;101269.38;4986920;28;20040;-77
2024/03/20 06:22:24;;;;;;;39.70;21.23;;;;;;;8.07;100.00;101303.56;4988811;28;20034;-77
2024/03/20 06:24:50;;;;;;;43.00;23.05;;;;;;;7.91;100.00;101310.19;4987927;28;20485;-77
2024/03/20 06:27:15;;;;;;;45.63;22.50;;;;;;;7.64;100.00;101299.28;4988174;28;20034;-77
2024/03/20 06:29:42;;;;;;;40.40;21.07;;;;;;;7.70;100.00;101336.81;4989132;28;20030;-77
2024/03/20 06:32:07;;;;;;;42.28;22.95;;;;;;;7.91;100.00;101368.69;4989576;28;20336;-77
2024/03/20 06:34:33;;;;;;;40.78;24.05;;;;;;;8.11;100.00;101390.94;4980807;28;20697;-77
2024/03/20 06:36:58;;;;;;;40.20;22.03;;;;;;;8.19;100.00;101391.13;4984550;28;20455;-77
2024/03/20 06:39:24;;;;;;;47.90;24.97;;;;;;;8.31;100.00;101391.91;4983679;28;20316;-77
2024/03/20 06:41:50;;;;;;;41.10;22.42;;;;;;;8.32;100.00;101393.56;4972038;28;20141;-78
2024/03/20 06:44:17;;;;;;;44.40;24.37;;;;;;;8.41;100.00;101418.59;4987402;28;20149;-77
2024/03/20 06:46:44;;;;;;;44.78;22.65;;;;;;;8.45;100.00;101404.88;4978217;28;20026;-77
2024/03/20 06:49:10;;;;;;;40.33;22.73;;;;;;;8.57;100.00;101394.13;4986408;28;20034;-76
2024/03/20 06:51:36;;;;;;;40.00;22.65;;;;;;;9.16;100.00;101457.28;4986686;28;20057;-78
2024/03/20 06:54:09;;;;;;;;;;;;;;;10.10;100.00;101430.97;4971271;28;20425;-77
2024/03/20 06:56:35;;;;;;;40.42;21.10;;;;;;;10.95;100.00;101383.75;5003290;28;20373;-76
2024/03/20 06:59:00;;;;;;;40.78;23.73;;;;;;;11.16;100.00;101182.22;4980327;28;20030;-76
2024/03/20 07:01:25;;;;;;;40.33;20.57;;;;;;;11.30;100.00;101114.81;4986145;28;20038;-77
2024/03/20 07:03:51;;;;;;;32.43;19.73;;;;;;;11.36;100.00;100972.53;4985867;28;20141;-77
2024/03/20 07:06:17;;;;;;;36.13;22.00;;;;;;;11.02;100.00;100846.13;4982084;28;20037;-77
2024/03/20 07:08:42;;;;;;;37.25;21.75;;;;;;;10.51;100.00;100737.53;4986726;28;20034;-77
2024/03/20 07:11:08;;;;;;;41.87;20.17;;;;;;;10.56;100.00;100839.31;4985882;28;20032;-78
2024/03/20 07:13:33;;;;;;;37.70;20.80;;;;;;;10.89;100.00;100873.31;4985812;28;20018;-76
2024/03/20 07:15:58;;;;;;;37.83;20.87;;;;;;;10.95;100.00;100835.25;4969604;28;20157;-78
2024/03/20 07:18:24;;;;;;;47.23;22.50;;;;;;;10.91;100.00;100825.91;4983651;28;20093;-77
2024/03/20 07:20:49;;;;;;;34.97;20.03;;;;;;;10.78;100.00;100783.63;4969689;28;20066;-77
2024/03/20 07:23:15;;;;;;;37.07;20.87;;;;;;;10.65;100.00;100783.25;4985815;28;20481;-77
2024/03/20 07:25:40;;;;;;;35.80;20.50;;;;;;;10.54;100.00;100805.75;4985786;28;20100;-77
2024/03/20 07:28:07;;;;;;;40.53;23.77;;;;;;;10.40;100.00;100833.06;4987069;28;20037;-77
2024/03/20 07:30:32;;;;;;;42.65;23.08;;;;;;;10.34;100.00;100866.53;4985462;28;20097;-77
2024/03/20 07:32:58;;;;;;;38.70;21.23;;;;;;;10.48;100.00;100940.69;4986026;28;20501;-77
2024/03/20 07:35:23;;;;;;;38.60;22.60;;;;;;;10.35;100.00;100917.09;4982608;28;20117;-77
2024/03/20 07:37:50;;;;;;;37.35;20.58;;;;;;;10.39;100.00;100933.63;4985628;28;20032;-77
2024/03/20 07:40:16;;;;;;;40.60;22.05;;;;;;;10.49;100.00;100923.69;4981771;28;20044;-77
2024/03/20 07:42:42;;;;;;;38.05;21.23;;;;;;;10.57;100.00;100979.78;4985673;28;20042;-77
2024/03/20 07:45:08;;;;;;;41.50;22.30;;;;;;;10.67;100.00;100976.19;4985689;28;20149;-78
2024/03/20 07:47:35;;;;;;;43.22;23.00;;;;;;;10.60;100.00;100953.78;4985866;28;20460;-77
2024/03/20 07:50:01;;;;;;;47.88;24.45;;;;;;;10.59;100.00;100978.81;4989523;28;20034;-77
2024/03/20 07:52:26;;;;;;;44.00;24.45;;;;;;;10.57;100.00;100915.72;4989954;28;20045;-77
2024/03/20 07:54:51;;;;;;;41.83;22.13;;;;;;;10.66;100.00;100899.75;4989301;28;20036;-77
2024/03/20 07:57:17;;;;;;;42.13;22.73;;;;;;;10.50;100.00;100906.66;4989600;28;20040;-77
2024/03/20 07:59:42;;;;;;;41.53;23.23;;;;;;;10.66;100.00;100969.19;4990279;28;20061;-77
2024/03/20 08:02:08;;;;;;;40.27;22.23;;;;;;;10.92;100.00;100988.69;4989422;28;20026;-77
2024/03/20 08:04:38;;;;;;;43.83;24.20;;;;;;;10.94;100.00;100857.66;4989250;28;21034;-77
2024/03/20 08:07:06;;;;;;;42.92;23.20;;;;;;;11.13;100.00;100848.50;4989507;28;20398;-77
2024/03/20 08:09:32;;;;;;;43.08;23.17;;;;;;;11.41;100.00;100867.78;4986943;28;20539;-78
2024/03/20 08:11:57;;;;;;;49.53;25.38;;;;;;;11.52;100.00;100811.31;4989350;28;20034;-77
2024/03/20 08:14:22;;;;;;;43.93;23.40;;;;;;;11.27;100.00;100732.94;4989087;28;20049;-77
2024/03/20 08:16:48;;;;;;;37.67;22.07;;;;;;;11.69;100.00;100879.00;4990603;28;20033;-78
2024/03/20 08:19:13;;;;;;;45.60;24.93;;;;;;;11.87;100.00;100870.84;4988877;28;20104;-77
2024/03/20 08:21:39;;;;;;;45.33;23.10;;;;;;;12.03;100.00;100824.47;4988967;28;20577;-77
2024/03/20 08:24:05;;;;;;;45.63;23.87;;;;;;;11.78;100.00;100835.19;4989234;28;20039;-78
2024/03/20 08:26:31;;;;;;;47.60;24.60;;;;;;;12.13;100.00;100901.94;4987104;28;20057;-78
2024/03/20 08:28:57;;;;;;;48.90;24.45;;;;;;;12.33;100.00;100953.25;4989246;28;20030;-77
2024/03/20 08:31:23;;;;;;;40.58;21.85;;;;;;;12.32;100.00;100890.03;4995087;28;20030;-78
2024/03/20 08:33:48;;;;;;;;;;;;;;;12.30;100.00;100859.91;5005701;28;20043;-77
2024/03/20 08:36:14;;;;;;;45.15;24.67;;;;;;;12.04;100.00;100807.44;4971383;28;20008;-77
2024/03/20 08:38:39;;;;;;;46.17;23.63;;;;;;;12.07;100.00;100870.50;4990283;28;20105;-77
2024/03/20 08:41:05;;;;;;;44.73;23.43;;;;;;;12.04;100.00;100867.13;4988836;28;20074;-78
2024/03/20 08:43:33;;;;;;;48.17;26.65;;;;;;;11.88;100.00;100872.50;4979598;28;20352;-78
2024/03/20 08:45:59;;;;;;;44.95;23.90;;;;;;;11.81;100.00;100965.09;4985785;28;20101;-78
2024/03/20 08:48:25;;;;;;;44.92;24.50;;;;;;;11.95;100.00;100974.34;4987728;28;20494;-78
2024/03/20 08:50:50;;;;;;;39.40;23.05;;;;;;;11.94;100.00;100994.91;4988504;28;20551;-78
2024/03/20 08:53:18;;;;;;;43.67;23.85;;;;;;;12.21;100.00;101017.00;4998898;28;20072;-78
2024/03/20 08:55:43;;;;;;;41.72;23.95;;;;;;;12.33;100.00;100994.25;4978247;28;20070;-78
2024/03/20 08:58:09;;;;;;;43.53;22.95;;;;;;;12.32;100.00;100852.56;4988705;28;20056;-77
2024/03/20 09:00:35;;;;;;;47.60;22.20;;;;;;;12.67;100.00;100860.13;5002510;28;20121;-78
2024/03/20 09:03:00;;;;;;;;;;;;;;;12.75;100.00;100794.94;4990164;28;20080;-78
2024/03/20 09:05:26;;;;;;;42.58;23.77;;;;;;;12.78;100.00;100745.53;4988404;28;19918;-78
2024/03/20 09:07:52;;;;;;;48.40;24.07;;;;;;;12.82;100.00;100741.50;4988480;28;20469;-77
2024/03/20 09:10:17;;;;;;;42.17;21.30;;;;;;;12.92;100.00;100703.75;4983792;28;20041;-77
2024/03/20 09:12:43;;;;;;;42.90;22.33;;;;;;;12.96;100.00;100753.31;5004283;28;20052;-76
2024/03/20 09:15:09;;;;;;;43.72;23.17;;;;;;;13.00;100.00;100747.41;4988037;28;20030;-78
2024/03/20 09:17:35;;;;;;;36.85;20.90;;;;;;;13.04;100.00;100729.97;4988022;28;20046;-76
2024/03/20 09:20:04;;;;;;;36.60;21.70;;;;;;;13.24;100.00;100649.06;4989228;28;20025;-77
2024/03/20 09:22:30;;;;;;;34.17;19.77;;;;;;;13.54;100.00;100590.13;4979995;28;20101;-77
2024/03/20 09:24:55;;;;;;;40.97;22.98;;;;;;;13.59;100.00;100660.13;4987677;28;20038;-78
2024/03/20 09:27:21;;;;;;;44.72;22.83;;;;;;;14.19;100.00;100666.28;4980262;28;20038;-77
2024/03/20 09:29:46;;;;;;;44.10;22.47;;;;;;;14.63;100.00;100596.31;4978487;28;20030;-77
2024/03/20 09:32:12;;;;;;;35.67;21.13;;;;;;;14.37;100.00;100406.19;4968502;28;20034;-77
2024/03/20 09:34:37;;;;;;;35.80;18.65;;;;;;;14.83;100.00;100647.56;4987992;28;20030;-77
2024/03/20 09:37:03;;;;;;;38.50;20.33;;;;;;;14.79;100.00;100450.09;4987955;28;20124;-77
2024/03/20 09:39:28;;;;;;;29.55;18.02;;;;;;;15.27;100.00;100524.66;4987536;28;20552;-78
2024/03/20 09:41:54;;;;;;;37.23;18.80;;;;;;;15.45;100.00;100479.19;4984793;28;20493;-78
2024/03/20 09:44:22;;;;;;;33.08;17.55;;;;;;;15.34;100.00;100383.78;4979549;28;20105;-77
2024/03/20 09:46:50;;;;;;;33.28;17.95;;;;;;;15.75;100.00;100341.66;4987567;28;20093;-77
2024/03/20 09:49:19;;;;;;;34.30;15.95;;;;;;;15.43;100.00;100252.63;4988072;28;20030;-78
2024/03/20 09:51:45;;;;;;;31.08;17.40;;;;;;;15.53;100.00;100260.28;5001114;28;20046;-78
2024/03/20 09:54:10;;;;;;;36.20;18.27;;;;;;;15.34;100.00;100270.00;4984781;28;20026;-78
2024/03/20 09:56:37;;;;;;;31.90;19.63;;;;;;;15.08;100.00;100207.09;4985422;28;20776;-78
2024/03/20 09:59:02;;;;;;;39.03;21.38;;;;;;;14.77;100.00;100272.97;4981923;28;20030;-78
2024/03/20 10:01:27;;;;;;;33.30;19.70;;;;;;;14.82;100.00;100384.38;4979705;28;20057;-78
2024/03/20 10:03:56;;;;;;;30.00;19.37;;;;;;;14.85;100.00;100346.38;4984812;28;20031;-78
2024/03/20 10:06:25;;;;;;;32.97;19.35;;;;;;;14.90;100.00;100325.94;4971603;28;20557;-78
2024/03/20 10:08:51;;;;;;;35.85;20.52;;;;;;;15.16;100.00;100418.47;4980452;28;20367;-78
2024/03/20 10:11:18;;;;;;;34.83;19.80;;;;;;;15.91;100.00;100486.63;4988296;28;20060;-77
2024/03/20 10:13:43;;;;;;;32.42;18.98;;;;;;;16.61;100.00;100346.13;5003419;28;20038;-78
2024/03/20 10:16:16;;;;;;;26.45;15.40;;;;;;;16.84;100.00;100200.09;4982075;28;20655;-77
2024/03/20 10:18:43;;;;;;;25.70;14.27;;;;;;;16.64;100.00;100119.31;4969047;28;20081;-78
2024/03/20 10:21:10;;;;;;;33.95;16.80;;;;;;;16.59;100.00;100004.06;4970439;28;20020;-78
2024/03/20 10:23:36;;;;;;;28.42;15.82;;;;;;;16.78;100.00;100012.22;5000418;28;20659;-77
2024/03/20 10:26:02;;;;;;;;;;;;;;;15.91;100.00;99985.91;4987113;28;20097;-77
2024/03/20 10:28:29;;;;;;;38.78;15.60;;;;;;;16.06;100.00;100089.78;4985712;28;19922;-78
2024/03/20 10:31:01;;;;;;;29.20;14.15;;;;;;;15.69;100.00;100299.41;4970377;28;20103;-78
2024/03/20 10:33:28;;;;;;;25.30;15.48;;;;;;;15.87;100.00;100380.38;4986535;28;20041;-78
2024/03/20 10:35:54;;;;;;;;;;;;;;;16.19;100.00;100407.53;4983373;28;20033;-78
2024/03/20 10:38:19;;;;;;;31.65;14.73;;;;;;;15.83;100.00;100414.97;4984380;28;19918;-77
2024/03/20 10:40:50;;;;;;;32.60;15.55;;;;;;;17.14;100.00;100455.69;5002746;28;20516;-78
2024/03/20 10:43:21;;;;;;;24.48;13.60;;;;;;;16.92;100.00;100142.38;4997643;28;20065;-78
2024/03/20 10:45:48;;;;;;;24.15;13.40;;;;;;;17.37;100.00;100274.41;4986188;28;20034;-78
2024/03/20 10:48:21;;;;;;;28.15;15.38;;;;;;;16.73;100.00;99980.53;4986309;28;20040;-77
2024/03/20 10:50:49;;;;;;;26.92;14.13;;;;;;;16.20;100.00;100118.31;4986091;28;20041;-78
2024/03/20 10:53:16;;;;;;;27.85;15.18;;;;;;;16.94;100.00;100292.09;4986272;28;20038;-77
2024/03/20 10:55:47;;;;;;;27.27;14.45;;;;;;;17.17;100.00;100382.44;4985918;28;20034;-78
2024/03/20 10:58:15;;;;;;;25.88;14.02;;;;;;;17.12;100.00;100110.69;4986055;28;20433;-77
2024/03/20 11:00:42;;;;;;;26.85;13.93;;;;;;;17.09;100.00;100074.19;4985761;28;20037;-78
2024/03/20 11:03:44;;;;;;;29.08;15.25;;;;;;;17.32;100.00;100077.28;4986226;28;20081;-78